createdAt,value
2022-09-02T00:01:29.719Z,16.27
2022-09-02T00:04:01.624Z,16.29
2022-09-02T00:06:31.334Z,16.20
2022-09-02T00:09:00.262Z,16.27
2022-09-02T00:11:30.880Z,16.27
2022-09-02T00:13:59.685Z,16.21
2022-09-02T00:16:27.657Z,16.17
2022-09-02T00:18:56.510Z,16.18
2022-09-02T00:21:26.942Z,16.12
2022-09-02T00:23:55.048Z,16.04
2022-09-02T00:26:23.344Z,16.03
2022-09-02T00:28:56.280Z,16.01
2022-09-02T00:31:25.676Z,15.92
2022-09-02T00:33:53.671Z,15.87
2022-09-02T00:36:22.275Z,15.95
2022-09-02T00:38:51.875Z,15.92
2022-09-02T00:41:24.207Z,15.88
2022-09-02T00:43:55.428Z,15.94
2022-09-02T00:46:25.618Z,15.98
2022-09-02T00:48:59.552Z,15.99
2022-09-02T00:51:30.274Z,15.91
2022-09-02T00:53:59.688Z,15.84
2022-09-02T00:56:30.565Z,15.81
2022-09-02T00:58:59.167Z,15.85
2022-09-02T01:01:28.139Z,15.80
2022-09-02T01:03:56.590Z,15.84
2022-09-02T01:06:28.670Z,15.77
2022-09-02T01:09:02.748Z,15.78
2022-09-02T01:11:39.029Z,15.73
2022-09-02T01:14:07.697Z,15.71
2022-09-02T01:16:42.269Z,15.64
2022-09-02T01:19:17.939Z,15.64
2022-09-02T01:21:49.134Z,15.60
2022-09-02T01:24:18.626Z,15.61
2022-09-02T01:26:46.531Z,15.68
2022-09-02T01:29:16.473Z,15.64
2022-09-02T01:31:44.685Z,15.60
2022-09-02T01:34:13.020Z,15.49
2022-09-02T01:36:42.526Z,15.52
2022-09-02T01:39:13.632Z,15.51
2022-09-02T01:41:42.078Z,15.54
2022-09-02T01:44:11.369Z,15.55
2022-09-02T01:46:39.649Z,15.46
2022-09-02T01:49:07.615Z,15.43
2022-09-02T01:51:35.881Z,15.42
2022-09-02T01:54:04.512Z,15.40
2022-09-02T01:56:33.829Z,15.30
2022-09-02T01:59:02.587Z,15.24
2022-09-02T02:01:30.690Z,15.26
2022-09-02T02:03:58.677Z,15.32
2022-09-02T02:06:26.573Z,15.23
2022-09-02T02:08:55.627Z,15.25
2022-09-02T02:11:25.779Z,15.25
2022-09-02T02:13:55.076Z,15.14
2022-09-02T02:16:23.015Z,15.19
2022-09-02T02:18:50.946Z,15.22
2022-09-02T02:21:18.879Z,15.18
2022-09-02T02:23:48.820Z,15.17
2022-09-02T02:26:16.807Z,15.21
2022-09-02T02:28:44.776Z,15.21
2022-09-02T02:31:14.285Z,15.14
2022-09-02T02:33:42.287Z,15.18
2022-09-02T02:36:10.792Z,15.07
2022-09-02T02:38:39.785Z,15.09
2022-09-02T02:41:07.913Z,15.16
2022-09-02T02:43:36.512Z,15.13
2022-09-02T02:46:05.353Z,15.08
2022-09-02T02:48:34.912Z,15.08
2022-09-02T02:51:03.968Z,15.13
2022-09-02T02:53:32.366Z,15.07
2022-09-02T02:56:00.655Z,15.03
2022-09-02T02:58:28.623Z,15.11
2022-09-02T03:00:57.107Z,15.16
2022-09-02T03:03:25.225Z,15.11
2022-09-02T03:05:55.901Z,15.04
2022-09-02T03:08:25.910Z,14.98
2022-09-02T03:10:56.469Z,15.00
2022-09-02T03:13:25.484Z,15.02
2022-09-02T03:15:54.901Z,14.95
2022-09-02T03:18:23.039Z,14.94
2022-09-02T03:20:51.251Z,14.93
2022-09-02T03:23:20.740Z,14.97
2022-09-02T03:25:48.791Z,14.92
2022-09-02T03:28:17.474Z,14.92
2022-09-02T03:30:47.312Z,14.92
2022-09-02T03:33:15.529Z,14.89
2022-09-02T03:35:46.003Z,14.88
2022-09-02T03:38:14.406Z,14.90
2022-09-02T03:40:44.311Z,14.90
2022-09-02T03:43:12.373Z,14.88
2022-09-02T03:45:41.760Z,14.85
2022-09-02T03:48:12.364Z,14.86
2022-09-02T03:50:42.621Z,14.94
2022-09-02T03:53:18.198Z,14.89
2022-09-02T03:55:52.778Z,14.93
2022-09-02T03:58:22.879Z,14.89
2022-09-02T04:00:52.806Z,14.87
2022-09-02T04:03:21.785Z,14.76
2022-09-02T04:05:50.770Z,14.78
2022-09-02T04:08:19.238Z,14.78
2022-09-02T04:10:47.244Z,14.78
2022-09-02T04:13:16.751Z,14.73
2022-09-02T04:15:48.393Z,14.62
2022-09-02T04:18:17.522Z,14.62
2022-09-02T04:20:45.833Z,14.65
2022-09-02T04:23:13.868Z,14.61
2022-09-02T04:25:42.957Z,14.61
2022-09-02T04:28:13.184Z,14.63
2022-09-02T04:30:43.694Z,14.71
2022-09-02T04:33:11.735Z,14.70
2022-09-02T04:35:41.465Z,14.66
2022-09-02T04:38:10.109Z,14.64
2022-09-02T04:40:41.835Z,14.66
2022-09-02T04:43:09.993Z,14.67
2022-09-02T04:45:42.512Z,14.67
2022-09-02T04:48:10.965Z,14.64
2022-09-02T04:50:41.097Z,14.72
2022-09-02T04:53:09.472Z,14.67
2022-09-02T04:55:40.844Z,14.69
2022-09-02T04:58:08.953Z,14.67
2022-09-02T05:00:39.169Z,14.67
2022-09-02T05:03:08.543Z,14.67
2022-09-02T05:05:39.198Z,14.66
2022-09-02T05:08:07.630Z,14.73
2022-09-02T05:10:35.604Z,14.70
2022-09-02T05:13:04.196Z,14.65
2022-09-02T05:15:32.355Z,14.70
2022-09-02T05:18:00.441Z,14.77
2022-09-02T05:20:29.700Z,14.81
2022-09-02T05:22:57.783Z,14.77
2022-09-02T05:25:25.754Z,14.75
2022-09-02T05:27:53.656Z,14.82
2022-09-02T05:30:21.588Z,14.96
2022-09-02T05:32:50.173Z,14.96
2022-09-02T05:35:19.031Z,14.88
2022-09-02T05:37:48.377Z,14.93
2022-09-02T05:40:16.346Z,14.97
2022-09-02T05:42:50.566Z,14.98
2022-09-02T05:45:19.411Z,15.08
2022-09-02T05:47:47.309Z,15.12
2022-09-02T05:50:16.551Z,15.19
2022-09-02T05:52:44.562Z,15.11
2022-09-02T05:55:13.973Z,15.07
2022-09-02T05:57:43.320Z,15.14
2022-09-02T06:00:18.114Z,15.22
2022-09-02T06:02:46.555Z,15.26
2022-09-02T06:05:14.618Z,15.28
2022-09-02T06:07:42.523Z,15.30
2022-09-02T06:10:10.424Z,15.38
2022-09-02T06:12:42.670Z,15.31
2022-09-02T06:15:12.452Z,15.29
2022-09-02T06:17:40.590Z,15.42
2022-09-02T06:20:10.017Z,15.52
2022-09-02T06:22:39.712Z,15.60
2022-09-02T06:25:08.277Z,15.57
2022-09-02T06:27:36.788Z,15.60
2022-09-02T06:30:07.126Z,15.62
2022-09-02T06:32:35.115Z,15.81
2022-09-02T06:35:03.001Z,15.88
2022-09-02T06:37:30.972Z,16.00
2022-09-02T06:39:58.919Z,16.01
2022-09-02T06:42:26.943Z,16.02
2022-09-02T06:44:54.805Z,16.14
2022-09-02T06:47:24.204Z,16.21
2022-09-02T06:49:52.074Z,16.21
2022-09-02T06:52:20.007Z,16.25
2022-09-02T06:54:49.208Z,16.38
2022-09-02T06:57:17.109Z,16.43
2022-09-02T06:59:45.078Z,16.54
2022-09-02T07:02:13.126Z,16.73
2022-09-02T07:05:00.417Z,16.88
2022-09-02T07:07:28.485Z,17.00
2022-09-02T07:09:56.696Z,17.02
2022-09-02T07:12:27.119Z,17.12
2022-09-02T07:14:55.973Z,17.30
2022-09-02T07:17:25.462Z,17.33
2022-09-02T07:19:57.701Z,18.88
2022-09-02T07:22:25.858Z,21.43
2022-09-02T07:24:53.796Z,23.60
2022-09-02T07:27:22.018Z,25.14
2022-09-02T07:29:50.480Z,25.71
2022-09-02T07:32:19.305Z,26.14
2022-09-02T07:34:47.455Z,26.78
2022-09-02T07:37:16.822Z,26.39
2022-09-02T07:39:45.324Z,27.09
2022-09-02T07:42:13.637Z,27.79
2022-09-02T07:44:41.542Z,28.54
2022-09-02T07:47:09.739Z,28.51
2022-09-02T07:52:29.509Z,29.39
2022-09-02T07:54:57.634Z,29.77
2022-09-02T07:57:25.720Z,29.54
2022-09-02T07:59:53.648Z,29.37
2022-09-02T08:02:21.766Z,29.20
2022-09-02T08:04:50.050Z,29.00
2022-09-02T08:07:24.226Z,29.66
2022-09-02T08:09:54.031Z,30.13
2022-09-02T08:12:22.645Z,30.25
2022-09-02T08:14:50.987Z,29.94
2022-09-02T08:17:19.131Z,30.28
2022-09-02T08:19:47.119Z,30.25
2022-09-02T08:22:15.502Z,29.88
2022-09-02T08:24:43.498Z,30.86
2022-09-02T08:27:12.915Z,30.64
2022-09-02T08:29:41.295Z,31.04
2022-09-02T08:32:09.540Z,30.93
2022-09-02T08:34:37.472Z,30.29
2022-09-02T08:37:06.554Z,30.87
2022-09-02T08:39:34.556Z,31.22
2022-09-02T08:42:09.212Z,31.83
2022-09-02T08:44:41.165Z,32.18
2022-09-02T08:47:14.474Z,32.35
2022-09-02T08:49:45.375Z,31.80
2022-09-02T08:52:22.519Z,31.49
2022-09-02T08:54:55.678Z,30.33
2022-09-02T08:57:26.823Z,30.93
2022-09-02T08:59:59.067Z,31.39
2022-09-02T09:02:36.901Z,31.70
2022-09-02T09:05:24.249Z,31.52
2022-09-02T09:08:08.473Z,31.28
2022-09-02T09:10:48.276Z,31.00
2022-09-02T09:13:31.439Z,31.59
2022-09-02T09:16:09.170Z,31.62
2022-09-02T09:18:40.595Z,30.95
2022-09-02T09:21:11.015Z,31.55
2022-09-02T09:23:41.222Z,31.17
2022-09-02T09:26:12.742Z,30.68
2022-09-02T09:28:47.182Z,30.15
2022-09-02T09:31:20.059Z,29.39
2022-09-02T09:34:01.138Z,30.00
2022-09-02T09:36:53.637Z,29.68
2022-09-02T09:39:27.737Z,29.41
2022-09-02T09:41:57.962Z,28.79
2022-09-02T09:44:44.760Z,27.60
2022-09-02T09:47:19.868Z,26.79
2022-09-02T09:49:50.089Z,26.78
2022-09-02T09:52:26.352Z,27.01
2022-09-02T09:55:13.882Z,27.13
2022-09-02T09:57:44.784Z,26.38
2022-09-02T10:00:32.215Z,25.82
2022-09-02T10:03:04.618Z,26.01
2022-09-02T10:05:35.892Z,26.09
2022-09-02T10:08:10.125Z,26.38
2022-09-02T10:10:57.602Z,26.35
2022-09-02T10:13:27.979Z,26.55
2022-09-02T10:16:11.529Z,26.21
2022-09-02T10:18:49.153Z,25.71
2022-09-02T10:21:29.513Z,25.80
2022-09-02T10:24:05.531Z,25.53
2022-09-02T10:26:39.405Z,25.28
2022-09-02T10:29:31.602Z,25.75
2022-09-02T10:32:24.359Z,25.46
2022-09-02T10:35:04.979Z,25.90
2022-09-02T10:37:41.557Z,25.88
2022-09-02T10:40:14.153Z,25.91
2022-09-02T10:42:54.267Z,25.43
2022-09-02T10:45:31.708Z,25.47
2022-09-02T10:48:13.975Z,25.52
2022-09-02T10:50:50.228Z,25.74
2022-09-02T10:53:32.898Z,25.23
2022-09-02T10:56:04.888Z,25.34
2022-09-02T10:58:45.360Z,24.84
2022-09-02T11:01:21.357Z,24.51
2022-09-02T11:04:05.028Z,24.45
2022-09-02T11:07:00.994Z,24.28
2022-09-02T11:09:34.712Z,24.54
2022-09-02T11:12:10.704Z,24.74
2022-09-02T11:14:49.566Z,24.87
2022-09-02T11:17:23.489Z,24.96
2022-09-02T11:19:56.991Z,24.85
2022-09-02T11:22:29.888Z,25.18
2022-09-02T11:25:04.657Z,25.12
2022-09-02T11:27:42.561Z,24.94
2022-09-02T11:30:14.976Z,24.44
2022-09-02T11:32:48.855Z,24.18
2022-09-02T11:35:21.847Z,24.21
2022-09-02T11:37:56.161Z,24.41
2022-09-02T11:40:36.727Z,24.43
2022-09-02T11:43:27.964Z,24.52
2022-09-02T11:46:21.032Z,24.66
2022-09-02T11:49:22.443Z,24.75
2022-09-02T11:52:04.635Z,24.75
2022-09-02T11:54:39.661Z,24.99
2022-09-02T11:57:11.988Z,24.86
2022-09-02T12:00:09.768Z,24.51
2022-09-02T12:02:43.975Z,24.27
2022-09-02T12:05:50.025Z,24.18
2022-09-02T12:09:01.042Z,24.46
2022-09-02T12:11:55.202Z,24.30
2022-09-02T12:15:08.925Z,24.39
2022-09-02T12:17:45.535Z,24.41
2022-09-02T12:20:52.273Z,24.39
2022-09-02T12:23:57.291Z,24.28
2022-09-02T12:26:27.260Z,24.36
2022-09-02T12:29:14.282Z,24.35
2022-09-02T12:31:44.217Z,24.47
2022-09-02T12:34:54.341Z,24.40
2022-09-02T12:37:53.777Z,24.36
2022-09-02T12:40:38.589Z,24.53
2022-09-02T12:43:21.143Z,24.57
2022-09-02T12:45:51.797Z,24.58
2022-09-02T12:48:37.898Z,24.40
2022-09-02T12:51:06.814Z,24.22
2022-09-02T12:53:38.494Z,24.34
2022-09-02T12:56:17.400Z,24.28
2022-09-02T12:58:48.833Z,24.35
2022-09-02T13:01:26.271Z,24.26
2022-09-02T13:04:16.787Z,24.21
2022-09-02T13:07:04.299Z,24.11
2022-09-02T13:10:02.627Z,23.93
2022-09-02T13:13:03.157Z,23.91
2022-09-02T13:15:58.045Z,24.11
2022-09-02T13:19:03.381Z,23.71
2022-09-02T13:21:51.335Z,23.76
2022-09-02T13:24:47.059Z,23.92
2022-09-02T13:27:50.178Z,24.24
2022-09-02T13:30:22.071Z,24.56
2022-09-02T13:32:58.540Z,24.84
2022-09-02T13:35:30.671Z,24.88
2022-09-02T13:38:01.812Z,24.86
2022-09-02T13:40:33.579Z,24.93
2022-09-02T13:43:03.504Z,25.01
2022-09-02T13:45:34.793Z,25.12
2022-09-02T13:48:08.388Z,25.06
2022-09-02T13:50:44.999Z,25.07
2022-09-02T13:56:14.849Z,25.04
2022-09-02T13:58:46.156Z,25.26
2022-09-02T14:01:28.258Z,25.40
2022-09-02T14:03:59.585Z,25.15
2022-09-02T14:06:33.255Z,25.00
2022-09-02T14:09:04.064Z,24.75
2022-09-02T14:11:39.279Z,24.60
2022-09-02T14:14:07.840Z,24.53
2022-09-02T14:16:37.374Z,24.66
2022-09-02T14:19:10.697Z,24.51
2022-09-02T14:21:47.274Z,24.45
2022-09-02T14:24:20.032Z,24.21
2022-09-02T14:26:49.141Z,24.06
2022-09-02T14:29:18.959Z,24.22
2022-09-02T14:31:48.021Z,24.34
2022-09-02T14:34:36.303Z,24.60
2022-09-02T14:37:20.077Z,24.70
2022-09-02T14:40:12.015Z,24.43
2022-09-02T14:42:55.068Z,24.19
2022-09-02T14:45:30.717Z,24.05
2022-09-02T14:48:02.995Z,24.03
2022-09-02T14:50:36.583Z,24.03
2022-09-02T14:53:09.216Z,24.10
2022-09-02T14:55:50.404Z,24.18
2022-09-02T14:58:18.835Z,24.34
2022-09-02T15:00:51.335Z,24.67
2022-09-02T15:03:20.202Z,24.89
2022-09-02T15:05:48.389Z,25.09
2022-09-02T15:08:18.327Z,25.09
2022-09-02T15:10:46.944Z,24.97
2022-09-02T15:13:19.789Z,24.84
2022-09-02T15:15:47.831Z,24.51
2022-09-02T15:18:15.728Z,24.48
2022-09-02T15:20:43.712Z,24.40
2022-09-02T15:23:12.061Z,24.49
2022-09-02T15:25:41.567Z,24.74
2022-09-02T15:28:09.427Z,24.90
2022-09-02T15:30:37.459Z,24.80
2022-09-02T15:33:06.078Z,24.84
2022-09-02T15:35:35.272Z,24.75
2022-09-02T15:38:04.282Z,24.44
2022-09-02T15:40:33.521Z,24.32
2022-09-02T15:43:02.752Z,24.40
2022-09-02T15:45:30.950Z,24.43
2022-09-02T15:47:59.722Z,24.44
2022-09-02T15:50:28.237Z,24.62
2022-09-02T15:52:57.100Z,24.97
2022-09-02T15:55:29.443Z,25.01
2022-09-02T15:57:57.629Z,24.94
2022-09-02T16:00:29.944Z,24.80
2022-09-02T16:03:01.468Z,24.89
2022-09-02T16:05:30.686Z,24.78
2022-09-02T16:07:58.786Z,24.81
2022-09-02T16:10:26.803Z,24.66
2022-09-02T16:12:54.627Z,24.53
2022-09-02T16:15:22.717Z,24.30
2022-09-02T16:17:52.742Z,24.28
2022-09-02T16:20:22.107Z,24.23
2022-09-02T16:22:49.987Z,24.16
2022-09-02T16:25:18.163Z,24.08
2022-09-02T16:27:55.854Z,23.97
2022-09-02T16:30:26.474Z,24.00
2022-09-02T16:32:55.740Z,24.04
2022-09-02T16:35:23.626Z,23.86
2022-09-02T16:37:51.582Z,23.82
2022-09-02T16:40:21.742Z,23.79
2022-09-02T16:42:49.851Z,23.81
2022-09-02T16:45:17.943Z,23.69
2022-09-02T16:47:45.816Z,23.51
2022-09-02T16:50:15.063Z,23.39
2022-09-02T16:52:43.659Z,23.31
2022-09-02T16:55:11.583Z,23.22
2022-09-02T16:57:39.435Z,23.14
2022-09-02T17:00:08.574Z,23.13
2022-09-02T17:02:36.566Z,23.09
2022-09-02T17:05:04.586Z,23.04
2022-09-02T17:07:33.981Z,22.93
2022-09-02T17:10:01.896Z,22.91
2022-09-02T17:12:29.847Z,22.85
2022-09-02T17:14:57.796Z,22.78
2022-09-02T17:17:25.723Z,22.63
2022-09-02T17:19:53.706Z,22.76
2022-09-02T17:22:21.705Z,22.77
2022-09-02T17:24:53.732Z,22.69
2022-09-02T17:27:22.045Z,22.71
2022-09-02T17:29:52.519Z,22.70
2022-09-02T17:32:21.262Z,22.63
2022-09-02T17:34:50.888Z,22.59
2022-09-02T17:37:18.824Z,22.51
2022-09-02T17:39:46.935Z,22.43
2022-09-02T17:42:15.764Z,22.40
2022-09-02T17:44:43.805Z,22.39
2022-09-02T17:47:14.232Z,22.33
2022-09-02T17:49:44.782Z,22.30
2022-09-02T17:52:14.672Z,22.24
2022-09-02T17:54:42.952Z,22.21
2022-09-02T17:57:29.435Z,22.08
2022-09-02T18:00:07.592Z,22.05
2022-09-02T18:03:13.577Z,21.97
2022-09-02T18:05:55.600Z,21.96
2022-09-02T18:08:33.804Z,21.92
2022-09-02T18:11:05.298Z,21.88
2022-09-02T18:13:45.091Z,21.79
2022-09-02T18:16:36.898Z,21.78
2022-09-02T18:19:31.077Z,21.78
2022-09-02T18:22:10.066Z,21.71
2022-09-02T18:24:57.679Z,21.67
2022-09-02T18:27:35.601Z,21.61
2022-09-02T18:30:08.622Z,21.63
2022-09-02T18:32:56.018Z,21.60
2022-09-02T18:35:33.458Z,21.54
2022-09-02T18:38:10.102Z,21.47
2022-09-02T18:40:49.028Z,21.35
2022-09-02T18:43:24.277Z,21.33
2022-09-02T18:45:58.779Z,21.21
2022-09-02T18:48:29.792Z,21.18
2022-09-02T18:50:59.835Z,21.18
2022-09-02T18:53:31.431Z,21.12
2022-09-02T18:56:06.075Z,21.09
2022-09-02T18:58:40.763Z,21.09
2022-09-02T19:01:16.028Z,21.03
2022-09-02T19:03:44.075Z,21.00
2022-09-02T19:06:18.588Z,20.92
2022-09-02T19:08:47.168Z,20.89
2022-09-02T19:11:17.959Z,20.80
2022-09-02T19:13:48.590Z,20.76
2022-09-02T19:16:19.957Z,20.76
2022-09-02T19:18:48.388Z,20.74
2022-09-02T19:21:20.362Z,20.67
2022-09-02T19:23:49.343Z,20.64
2022-09-02T19:26:18.344Z,20.62
2022-09-02T19:28:47.023Z,20.58
2022-09-02T19:31:21.965Z,20.57
2022-09-02T19:33:52.944Z,20.49
2022-09-02T19:36:22.468Z,20.50
2022-09-02T19:38:50.334Z,20.48
2022-09-02T19:41:18.256Z,20.39
2022-09-02T19:43:46.120Z,20.32
2022-09-02T19:46:33.100Z,20.36
2022-09-02T19:49:03.239Z,20.35
2022-09-02T19:51:31.098Z,20.34
2022-09-02T19:54:00.995Z,20.21
2022-09-02T19:56:29.090Z,20.20
2022-09-02T19:58:56.983Z,20.19
2022-09-02T20:01:24.879Z,20.16
2022-09-02T20:03:53.069Z,20.11
2022-09-02T20:06:22.289Z,20.14
2022-09-02T20:08:50.204Z,20.10
2022-09-02T20:11:18.332Z,20.10
2022-09-02T20:13:46.175Z,20.13
2022-09-02T20:16:17.767Z,20.10
2022-09-02T20:18:48.362Z,20.14
2022-09-02T20:21:20.673Z,20.08
2022-09-02T20:23:50.061Z,20.07
2022-09-02T20:26:34.406Z,20.07
2022-09-02T20:29:16.181Z,19.96
2022-09-02T20:31:57.485Z,20.06
2022-09-02T20:34:38.480Z,20.10
2022-09-02T20:37:16.400Z,20.08
2022-09-02T20:39:57.871Z,19.99
2022-09-02T20:42:58.973Z,19.88
2022-09-02T20:45:29.766Z,19.87
2022-09-02T20:48:10.515Z,19.81
2022-09-02T20:50:48.746Z,19.79
2022-09-02T20:53:38.821Z,19.77
2022-09-02T20:56:19.075Z,19.68
2022-09-02T20:58:54.198Z,19.62
2022-09-02T21:01:27.595Z,19.52
2022-09-02T21:04:02.844Z,19.48
2022-09-02T21:06:35.193Z,19.47
2022-09-02T21:09:11.280Z,19.48
2022-09-02T21:11:48.161Z,19.40
2022-09-02T21:14:21.244Z,19.38
2022-09-02T21:16:55.288Z,19.33
2022-09-02T21:19:30.499Z,19.35
2022-09-02T21:22:06.637Z,19.33
2022-09-02T21:24:39.337Z,19.23
2022-09-02T21:27:14.175Z,19.16
2022-09-02T21:29:49.918Z,19.22
2022-09-02T21:32:25.278Z,19.27
2022-09-02T21:34:58.452Z,19.29
2022-09-02T21:37:29.535Z,19.26
2022-09-02T21:40:02.420Z,19.26
2022-09-02T21:42:43.919Z,19.32
2022-09-02T21:45:21.435Z,19.33
2022-09-02T21:47:57.907Z,19.24
2022-09-02T21:50:35.839Z,19.35
2022-09-02T21:53:12.628Z,19.40
2022-09-02T21:55:57.580Z,19.26
2022-09-02T21:58:54.559Z,19.27
2022-09-02T22:01:44.452Z,19.26
2022-09-02T22:04:26.289Z,19.17
2022-09-02T22:07:00.414Z,19.17
2022-09-02T22:09:31.341Z,19.21
2022-09-02T22:12:05.536Z,19.20
2022-09-02T22:14:48.152Z,19.18
2022-09-02T22:17:27.199Z,19.11
2022-09-02T22:19:59.286Z,19.08
2022-09-02T22:22:30.349Z,19.08
2022-09-02T22:24:58.618Z,19.06
2022-09-02T22:27:34.381Z,19.00
2022-09-02T22:30:08.783Z,19.00
2022-09-02T22:32:41.280Z,19.09
2022-09-02T22:35:18.577Z,18.99
2022-09-02T22:37:53.420Z,18.93
2022-09-02T22:40:25.649Z,18.93
2022-09-02T22:42:59.004Z,18.82
2022-09-02T22:45:52.480Z,18.75
2022-09-02T22:48:44.730Z,18.61
2022-09-02T22:51:35.249Z,18.55
2022-09-02T22:54:03.314Z,18.50
2022-09-02T22:56:42.243Z,18.46
2022-09-02T22:59:25.189Z,18.41
2022-09-02T23:02:08.181Z,18.27
2022-09-02T23:04:52.473Z,18.19
2022-09-02T23:07:20.335Z,18.16
2022-09-02T23:09:53.009Z,18.10
2022-09-02T23:12:30.182Z,18.10
2022-09-02T23:15:13.321Z,18.08
2022-09-02T23:17:57.879Z,18.07
2022-09-02T23:20:32.823Z,18.05
2022-09-02T23:23:15.233Z,17.99
2022-09-02T23:25:53.932Z,17.99
2022-09-02T23:28:35.367Z,17.87
2022-09-02T23:31:13.169Z,17.80
2022-09-02T23:33:51.063Z,17.83
2022-09-02T23:36:35.072Z,17.78
2022-09-02T23:39:24.193Z,17.70
2022-09-02T23:41:53.419Z,17.71
2022-09-02T23:44:23.001Z,17.68
2022-09-02T23:47:06.347Z,17.69
2022-09-02T23:49:42.007Z,17.68
2022-09-02T23:52:24.643Z,17.65
2022-09-02T23:55:05.458Z,17.69
2022-09-02T23:57:56.700Z,17.71
